Aviation Digital Data Service (ADDS)

Output produced by METARs form (1034 UTC 17 June 2019)
found at http://www.aviationweather.gov/metar/data/
 
METAR text: WIHH 170830Z 04011KT 5000 HZ SCT022 33/20 Q1008 N0SIG
Conditions at: WIHH (HALIM PERDANAKUS, ID) observed 0830 UTC 17 June 2019
Temperature: 33.0°C (91°F)
Dewpoint: 20.0°C (68°F) [RH = 46%]
Pressure (altimeter): 29.76 inches Hg (1008.0 mb)
Winds: from the NE (40 degrees) at 13 MPH (11 knots; 5.7 m/s)
Visibility: 3 miles ( 5 km)
Ceiling: at least 12,000 feet AGL
Clouds: scattered clouds at 2200 feet AGL
Weather: HZ  (haze)

METAR text: WIHH 170630Z 07008KT 4000 HZ SCT022 33/21 Q1009 N0SIG
Conditions at: WIHH (HALIM PERDANAKUS, ID) observed 0630 UTC 17 June 2019
Temperature: 33.0°C (91°F)
Dewpoint: 21.0°C (70°F) [RH = 49%]
Pressure (altimeter): 29.79 inches Hg (1009.0 mb)
Winds: from the ENE (70 degrees) at 9 MPH (8 knots; 4.1 m/s)
Visibility: 2.49 miles (4.01 km)
Ceiling: at least 12,000 feet AGL
Clouds: scattered clouds at 2200 feet AGL
Weather: HZ  (haze)

METAR text: WIHH 170500Z 06008KT 4000 HZ SCT022 32/22 Q1010 N0SIG
Conditions at: WIHH (HALIM PERDANAKUS, ID) observed 0500 UTC 17 June 2019
Temperature: 32.0°C (90°F)
Dewpoint: 22.0°C (72°F) [RH = 56%]
Pressure (altimeter): 29.82 inches Hg (1010.0 mb)
Winds: from the ENE (60 degrees) at 9 MPH (8 knots; 4.1 m/s)
Visibility: 2.49 miles (4.01 km)
Ceiling: at least 12,000 feet AGL
Clouds: scattered clouds at 2200 feet AGL
Weather: HZ  (haze)

METAR text: WIHH 170400Z 07010KT 4000 HZ SCT022 31/22 Q1010 N0SIG
Conditions at: WIHH (HALIM PERDANAKUS, ID) observed 0400 UTC 17 June 2019
Temperature: 31.0°C (88°F)
Dewpoint: 22.0°C (72°F) [RH = 59%]
Pressure (altimeter): 29.82 inches Hg (1010.0 mb)
Winds: from the ENE (70 degrees) at 12 MPH (10 knots; 5.1 m/s)
Visibility: 2.49 miles (4.01 km)
Ceiling: at least 12,000 feet AGL
Clouds: scattered clouds at 2200 feet AGL
Weather: HZ  (haze)

METAR text: WIHH 170200Z 00000KT 3000 HZ NSC 29/23 Q1011 N0SIG
Conditions at: WIHH (HALIM PERDANAKUS, ID) observed 0200 UTC 17 June 2019
Temperature: 29.0°C (84°F)
Dewpoint: 23.0°C (73°F) [RH = 70%]
Pressure (altimeter): 29.85 inches Hg (1011.0 mb)
Winds: calm
Visibility: 1.86 miles (2.99 km)
Ceiling: at least 12,000 feet AGL
Clouds: sky clear below 12,000 feet AGL
Weather: HZ  (haze)

METAR text: WIHH 170100Z 21003KT 3000 HZ NSC 27/23 Q1011 N0SIG
Conditions at: WIHH (HALIM PERDANAKUS, ID) observed 0100 UTC 17 June 2019
Temperature: 27.0°C (81°F)
Dewpoint: 23.0°C (73°F) [RH = 79%]
Pressure (altimeter): 29.85 inches Hg (1011.0 mb)
Winds: from the SSW (210 degrees) at 3 MPH (3 knots; 1.5 m/s)
Visibility: 1.86 miles (2.99 km)
Ceiling: at least 12,000 feet AGL
Clouds: sky clear below 12,000 feet AGL
Weather: HZ  (haze)

METAR text: WIHH 170000Z 00000KT 3000 HZ NSC 26/24 Q1011 N0SIG
Conditions at: WIHH (HALIM PERDANAKUS, ID) observed 0000 UTC 17 June 2019
Temperature: 26.0°C (79°F)
Dewpoint: 24.0°C (75°F) [RH = 89%]
Pressure (altimeter): 29.85 inches Hg (1011.0 mb)
Winds: calm
Visibility: 1.86 miles (2.99 km)
Ceiling: at least 12,000 feet AGL
Clouds: sky clear below 12,000 feet AGL
Weather: HZ  (haze)

METAR text: WIHH 162300Z 00000KT 2500 BR FEW022 25/24 Q1010 N0SIG
Conditions at: WIHH (HALIM PERDANAKUS, ID) observed 2300 UTC 16 June 2019
Temperature: 25.0°C (77°F)
Dewpoint: 24.0°C (75°F) [RH = 94%]
Pressure (altimeter): 29.82 inches Hg (1010.0 mb)
Winds: calm
Visibility: 1.55 miles (2.49 km)
Ceiling: at least 12,000 feet AGL
Clouds: few clouds at 2200 feet AGL
Weather: BR  (mist)

METAR text: WIHH 162200Z 00000KT 3000 BR FEW022 25/24 Q1010 N0SIG
Conditions at: WIHH (HALIM PERDANAKUS, ID) observed 2200 UTC 16 June 2019
Temperature: 25.0°C (77°F)
Dewpoint: 24.0°C (75°F) [RH = 94%]
Pressure (altimeter): 29.82 inches Hg (1010.0 mb)
Winds: calm
Visibility: 1.86 miles (2.99 km)
Ceiling: at least 12,000 feet AGL
Clouds: few clouds at 2200 feet AGL
Weather: BR  (mist)

METAR text: WIHH 161500Z 24004KT 5000 HZ FEW020 26/224 Q1012 NOSIG
Conditions at: WIHH (HALIM PERDANAKUS, ID) observed 1500 UTC 16 June 2019
Temperature: missing
Dewpoint: missing
Pressure (altimeter): 29.88 inches Hg (1012.0 mb)
Winds: from the WSW (240 degrees) at 5 MPH (4 knots; 2.1 m/s)
Visibility: 3 miles ( 5 km)
Ceiling: at least 12,000 feet AGL
Clouds: few clouds at 2000 feet AGL
Weather: HZ  (haze)

METAR text: WIHH 161200Z 04004KT 5000 HZ SCT020 30/23 Q1011 RMK RA TO S
Conditions at: WIHH (HALIM PERDANAKUS, ID) observed 1200 UTC 16 June 2019
Temperature: 30.0°C (86°F)
Dewpoint: 23.0°C (73°F) [RH = 66%]
Pressure (altimeter): 29.85 inches Hg (1011.0 mb)
Winds: from the NE (40 degrees) at 5 MPH (4 knots; 2.1 m/s)
Visibility: 3 miles ( 5 km)
Ceiling: at least 12,000 feet AGL
Clouds: scattered clouds at 2000 feet AGL
Weather: HZ  (haze)

METAR text: WIHH 161100Z 04006KT 5000 HZ SCT021 30/23 Q1010 NOSIG
Conditions at: WIHH (HALIM PERDANAKUS, ID) observed 1100 UTC 16 June 2019
Temperature: 30.0°C (86°F)
Dewpoint: 23.0°C (73°F) [RH = 66%]
Pressure (altimeter): 29.82 inches Hg (1010.0 mb)
Winds: from the NE (40 degrees) at 7 MPH (6 knots; 3.1 m/s)
Visibility: 3 miles ( 5 km)
Ceiling: at least 12,000 feet AGL
Clouds: scattered clouds at 2100 feet AGL
Weather: HZ  (haze)

METAR text: WIHH 161000Z 05008KT 6000 SCT020 31/23 Q1009 NOSIG
Conditions at: WIHH (HALIM PERDANAKUS, ID) observed 1000 UTC 16 June 2019
Temperature: 31.0°C (88°F)
Dewpoint: 23.0°C (73°F) [RH = 63%]
Pressure (altimeter): 29.79 inches Hg (1009.0 mb)
Winds: from the NE (50 degrees) at 9 MPH (8 knots; 4.1 m/s)
Visibility: 4 miles ( 6 km)
Ceiling: at least 12,000 feet AGL
Clouds: scattered clouds at 2000 feet AGL
Weather: no significant weather observed at this time

METAR text: WIHH 160900Z 03010KT 6000 SCT020 32/23 Q1009 NOSIG
Conditions at: WIHH (HALIM PERDANAKUS, ID) observed 0900 UTC 16 June 2019
Temperature: 32.0°C (90°F)
Dewpoint: 23.0°C (73°F) [RH = 59%]
Pressure (altimeter): 29.79 inches Hg (1009.0 mb)
Winds: from the NNE (30 degrees) at 12 MPH (10 knots; 5.1 m/s)
Visibility: 4 miles ( 6 km)
Ceiling: at least 12,000 feet AGL
Clouds: scattered clouds at 2000 feet AGL
Weather: no significant weather observed at this time

METAR text: WIHH 160700Z 34004KT 5000 HZ SCT018 32/23 Q1009 RMK RA TO N
Conditions at: WIHH (HALIM PERDANAKUS, ID) observed 0700 UTC 16 June 2019
Temperature: 32.0°C (90°F)
Dewpoint: 23.0°C (73°F) [RH = 59%]
Pressure (altimeter): 29.79 inches Hg (1009.0 mb)
Winds: from the NNW (340 degrees) at 5 MPH (4 knots; 2.1 m/s)
Visibility: 3 miles ( 5 km)
Ceiling: at least 12,000 feet AGL
Clouds: scattered clouds at 1800 feet AGL
Weather: HZ  (haze)

METAR text: WIHH 160600Z 33004KT 5000 HZ SCT018 34/23 Q1010 RMK RA TO N
Conditions at: WIHH (HALIM PERDANAKUS, ID) observed 0600 UTC 16 June 2019
Temperature: 34.0°C (93°F)
Dewpoint: 23.0°C (73°F) [RH = 53%]
Pressure (altimeter): 29.82 inches Hg (1010.0 mb)
Winds: from the NNW (330 degrees) at 5 MPH (4 knots; 2.1 m/s)
Visibility: 3 miles ( 5 km)
Ceiling: at least 12,000 feet AGL
Clouds: scattered clouds at 1800 feet AGL
Weather: HZ  (haze)

METAR text: WIHH 160500Z 15003KT 6000 SCT020 33/23 Q1010 NOSIG
Conditions at: WIHH (HALIM PERDANAKUS, ID) observed 0500 UTC 16 June 2019
Temperature: 33.0°C (91°F)
Dewpoint: 23.0°C (73°F) [RH = 56%]
Pressure (altimeter): 29.82 inches Hg (1010.0 mb)
Winds: from the SSE (150 degrees) at 3 MPH (3 knots; 1.5 m/s)
Visibility: 4 miles ( 6 km)
Ceiling: at least 12,000 feet AGL
Clouds: scattered clouds at 2000 feet AGL
Weather: no significant weather observed at this time

METAR text: WIHH 160400Z 22004KT 6000 SCT020 32/22 Q1011 NOSIG
Conditions at: WIHH (HALIM PERDANAKUS, ID) observed 0400 UTC 16 June 2019
Temperature: 32.0°C (90°F)
Dewpoint: 22.0°C (72°F) [RH = 56%]
Pressure (altimeter): 29.85 inches Hg (1011.0 mb)
Winds: from the SW (220 degrees) at 5 MPH (4 knots; 2.1 m/s)
Visibility: 4 miles ( 6 km)
Ceiling: at least 12,000 feet AGL
Clouds: scattered clouds at 2000 feet AGL
Weather: no significant weather observed at this time

METAR text: WIHH 160300Z 05004KT 6000 FEW020 32/23 Q1012 NOSIG
Conditions at: WIHH (HALIM PERDANAKUS, ID) observed 0300 UTC 16 June 2019
Temperature: 32.0°C (90°F)
Dewpoint: 23.0°C (73°F) [RH = 59%]
Pressure (altimeter): 29.88 inches Hg (1012.0 mb)
Winds: from the NE (50 degrees) at 5 MPH (4 knots; 2.1 m/s)
Visibility: 4 miles ( 6 km)
Ceiling: at least 12,000 feet AGL
Clouds: few clouds at 2000 feet AGL
Weather: no significant weather observed at this time

METAR text: WIHH 160200Z 24005KT 5000 HZ NSC 30/23 Q1012 NOSIG
Conditions at: WIHH (HALIM PERDANAKUS, ID) observed 0200 UTC 16 June 2019
Temperature: 30.0°C (86°F)
Dewpoint: 23.0°C (73°F) [RH = 66%]
Pressure (altimeter): 29.88 inches Hg (1012.0 mb)
Winds: from the WSW (240 degrees) at 6 MPH (5 knots; 2.6 m/s)
Visibility: 3 miles ( 5 km)
Ceiling: at least 12,000 feet AGL
Clouds: sky clear below 12,000 feet AGL
Weather: HZ  (haze)

Forecast for: WIHH (HALIM PERDANAKUS, ID)
Text: TAF WIHH 170500Z 1706/1806 09010KT 7000 SCT020
Forecast period: 0600 to 0800 UTC 17 June 2019
Forecast type: FROM: standard forecast or significant change
Winds: from the E (90 degrees) at 12 MPH (10 knots; 5.1 m/s)
Visibility: 4 miles (7 km)
Ceiling: at least 12,000 feet AGL
Clouds: scattered clouds at 2000 feet AGL
Weather: no significant weather forecast for this period
Text: BECMG 1708/1710 02006KT 5000 HZ
Forecast period: 0800 UTC 17 June 2019 to 0600 UTC 18 June 2019
Forecast type: BECOMING: Conditions expected to become as follows by 1000 UTC 17 June 2019
Winds: from the NNE (20 degrees) at 7 MPH (6 knots; 3.1 m/s)
Visibility: 3 miles (5 km)
Ceiling: at least 12,000 feet AGL
Clouds: scattered clouds at 2000 feet AGL
Weather: HZ  (haze)